Weather History for KW99 - December, 2012

Change the Weather History Date:

Friday, December 14, 2012

  Actual Average (KEKN) Record (KEKN)
Temperature  
Mean Temperature 40 °F 33 °F  
Max Temperature 60 °F 42 °F 67 °F (2001)
Min Temperature 20 °F 23 °F 0 °F (1960)
Degree Days  
Heating Degree Days 25 32  
Month to date heating degree days 426  
Since 1 July heating degree days 1710  
Cooling Degree Days 0 0  
Month to date cooling degree days 0  
Year to date cooling degree days 475  
Moisture  
Dew Point 24 °F    
Average Humidity 72    
Maximum Humidity 92    
Minimum Humidity 18    
Precipitation  
Precipitation 0.00 in 0.11 in 2.28 in (1901)
Month to date precipitation 1.57  
Year to date precipitation 44.24  
Snow  
Snow 0.00 in - - ()
Month to date snowfall  
Since 1 September snowfall  
Snow Depth -    
Sea Level Pressure  
Sea Level Pressure 30.28 in    
Wind  
Wind Speed 0 mph (NNE)    
Max Wind Speed 8 mph    
Max Gust Speed -    
Visibility 8 miles    
Events      
T = Trace of Precipitation, MM = Missing Value Source: NWS Daily Summary

Daily Weather History Graph

Daily Weather History Graph

Search for Another Location

Airport or City:

Trip Planner

Search our weather history database for the weather conditions in past years. The results will help you decide how hot, cold, wet, or windy it might be!

Date:

Astronomy

Dec. 14, 2012 Rise Set
Actual Time 7:27 AM EST 4:55 PM EST
Civil Twilight 6:57 AM EST 5:25 PM EST
Nautical Twilight 6:24 AM EST 5:58 PM EST
Astronomical Twilight 5:51 AM EST 6:31 PM EST
Moon 8:31 AM EST (12/14) 6:45 PM EST (12/14)
Length of Visible Light 10h 27m
Length of Day
9h 27m
Waxing Crescent, 3% of the Moon is Illuminated
Dec 14
Waxing Crescent
Dec 20
First Quarter
Dec 28
Full
Jan 4
Last Quarter
Jan 11
New

Hourly Weather History & Observations

Time (EST) Temp. Dew Point Humidity Pressure Visibility Wind Dir Wind Speed Gust Speed Precip Events Conditions
12:15 AM 25.3 °F 23.2 °F 91% 30.33 in 5.0 mi Calm Calm - N/A   Clear
12:35 AM 25.7 °F 23.7 °F 92% 30.32 in 5.0 mi Calm Calm - N/A   Clear
12:55 AM 25.2 °F 23.0 °F 91% 30.32 in 5.0 mi Calm Calm - N/A   Clear
1:15 AM 25.0 °F 23.0 °F 92% 30.32 in 5.0 mi Calm Calm - N/A   Clear
1:35 AM 24.8 °F 22.6 °F 91% 30.33 in 5.0 mi Calm Calm - N/A   Clear
1:55 AM 24.1 °F 21.9 °F 91% 30.33 in 5.0 mi Calm Calm - N/A   Clear
2:15 AM 23.0 °F 21.0 °F 92% 30.33 in 5.0 mi Calm Calm - N/A   Clear
2:35 AM 22.5 °F 20.5 °F 92% 30.33 in 7.0 mi Calm Calm - N/A   Clear
2:55 AM 23.5 °F 21.4 °F 91% 30.33 in 7.0 mi Calm Calm - N/A   Clear
3:15 AM 22.8 °F 20.7 °F 91% 30.33 in 5.0 mi Calm Calm - N/A   Clear
3:35 AM 22.3 °F 20.1 °F 91% 30.33 in 7.0 mi Calm Calm - N/A   Clear
3:55 AM 22.6 °F 20.3 °F 91% 30.32 in 5.0 mi Calm Calm - N/A   Clear
4:15 AM 21.7 °F 19.6 °F 91% 30.32 in 5.0 mi Calm Calm - N/A   Clear
4:35 AM 21.9 °F 19.8 °F 91% 30.33 in 5.0 mi Calm Calm - N/A   Clear
4:55 AM 21.4 °F 19.2 °F 91% 30.32 in 7.0 mi Calm Calm - N/A   Clear
5:15 AM 21.7 °F 19.4 °F 91% 30.32 in 5.0 mi Calm Calm - N/A   Clear
5:35 AM 21.2 °F 18.9 °F 91% 30.32 in 7.0 mi Calm Calm - N/A   Clear
6:15 AM 21.9 °F 19.4 °F 90% 30.32 in 7.0 mi Calm Calm - N/A   Clear
6:35 AM 20.8 °F 18.5 °F 91% 30.33 in 7.0 mi Calm Calm - N/A   Clear
6:55 AM 20.7 °F 18.1 °F 90% 30.32 in 7.0 mi Calm Calm - N/A   Clear
7:15 AM 21.2 °F 18.7 °F 90% 30.32 in 7.0 mi Calm Calm - N/A   Clear
7:35 AM 20.7 °F 18.3 °F 91% 30.32 in 5.0 mi Calm Calm - N/A   Clear
7:55 AM 21.2 °F 18.9 °F 91% 30.32 in 5.0 mi Calm Calm - N/A   Clear
8:15 AM 22.3 °F 19.8 °F 90% 30.32 in 5.0 mi Calm Calm - N/A   Clear
8:35 AM 24.4 °F 21.7 °F 89% 30.31 in 4.0 mi Calm Calm - N/A   Clear
8:55 AM 25.5 °F 22.8 °F 89% 30.32 in 5.0 mi Calm Calm - N/A   Clear
9:15 AM 26.8 °F 23.7 °F 88% 30.32 in 5.0 mi Calm Calm - N/A   Clear
9:35 AM 28.6 °F 25.3 °F 88% 30.32 in 5.0 mi Calm Calm - N/A   Clear
9:55 AM 31.1 °F 27.1 °F 85% 30.32 in 7.0 mi Calm Calm - N/A   Clear
10:15 AM 32.0 °F 27.3 °F 83% 30.32 in 7.0 mi Calm Calm - N/A   Clear
10:35 AM 34.2 °F 28.8 °F 81% 30.32 in 10.0 mi Calm Calm - N/A   Clear
10:55 AM 36.9 °F 28.9 °F 73% 30.31 in 10.0 mi Calm Calm - N/A   Clear
11:15 AM 39.0 °F 28.4 °F 66% 30.29 in 10.0 mi Calm Calm - N/A   Clear
11:35 AM 41.2 °F 29.3 °F 63% 30.29 in 10.0 mi Calm Calm - N/A   Clear
11:55 AM 44.4 °F 30.9 °F 59% 30.28 in 10.0 mi Calm Calm - N/A   Clear
12:15 PM 46.6 °F 31.6 °F 56% 30.27 in 10.0 mi Calm Calm - N/A   Clear
12:35 PM 50.4 °F 32.4 °F 50% 30.26 in 10.0 mi Calm Calm - N/A   Clear
12:55 PM 54.5 °F 30.9 °F 41% 30.25 in 10.0 mi Calm Calm - N/A   Clear
1:15 PM 57.9 °F 21.0 °F 24% 30.24 in 10.0 mi Calm Calm - N/A   Clear
1:35 PM 58.5 °F 17.8 °F 21% 30.23 in 10.0 mi Calm Calm - N/A   Clear
1:55 PM 59.9 °F 17.8 °F 19% 30.22 in 10.0 mi Calm Calm - N/A   Clear
2:15 PM 60.3 °F 16.9 °F 19% 30.22 in 10.0 mi Calm Calm - N/A   Clear
2:35 PM 60.3 °F 15.6 °F 18% 30.22 in 10.0 mi Calm Calm - N/A   Clear
2:55 PM 60.6 °F 16.7 °F 18% 30.22 in 10.0 mi Calm Calm - N/A   Clear
3:15 PM 59.7 °F 16.7 °F 19% 30.22 in 10.0 mi Calm Calm - N/A   Clear
3:35 PM 59.0 °F 17.2 °F 20% 30.22 in 10.0 mi Calm Calm - N/A   Clear
3:55 PM 57.7 °F 18.5 °F 22% 30.21 in 10.0 mi NNE 8.1 mph - N/A   Clear
4:15 PM 56.1 °F 19.8 °F 24% 30.22 in 10.0 mi Calm Calm - N/A   Clear
4:35 PM 52.0 °F 22.3 °F 31% 30.23 in 10.0 mi Calm Calm - N/A   Clear
5:15 PM 41.5 °F 26.8 °F 56% 30.23 in 10.0 mi Calm Calm - N/A   Clear
5:35 PM 39.2 °F 26.1 °F 59% 30.24 in 10.0 mi Calm Calm - N/A   Clear
5:55 PM 37.8 °F 27.0 °F 65% 30.24 in 10.0 mi Calm Calm - N/A   Clear
6:15 PM 39.2 °F 27.0 °F 62% 30.24 in 10.0 mi Calm Calm - N/A   Clear
6:35 PM 35.8 °F 27.5 °F 72% 30.24 in 10.0 mi Calm Calm - N/A   Clear
6:55 PM 35.1 °F 28.2 °F 76% 30.24 in 10.0 mi Calm Calm - N/A   Clear
7:15 PM 36.1 °F 28.9 °F 75% 30.24 in 10.0 mi Calm Calm - N/A   Clear
7:35 PM 33.3 °F 27.9 °F 81% 30.25 in 10.0 mi Calm Calm - N/A   Clear
7:55 PM 32.2 °F 26.8 °F 80% 30.26 in 10.0 mi Calm Calm - N/A   Clear
8:15 PM 32.2 °F 27.3 °F 82% 30.26 in 10.0 mi Calm Calm - N/A   Clear
8:35 PM 32.0 °F 27.0 °F 82% 30.26 in 10.0 mi Calm Calm - N/A   Clear
8:55 PM 31.8 °F 26.8 °F 82% 30.26 in 10.0 mi Calm Calm - N/A   Clear
9:15 PM 30.9 °F 26.2 °F 83% 30.27 in 10.0 mi Calm Calm - N/A   Clear
9:35 PM 32.0 °F 27.7 °F 84% 30.27 in 10.0 mi Calm Calm - N/A   Clear
9:55 PM 32.0 °F 27.3 °F 83% 30.28 in 10.0 mi Calm Calm - N/A   Clear
10:15 PM 31.6 °F 26.6 °F 82% 30.28 in 10.0 mi Calm Calm - N/A   Clear
10:35 PM 31.1 °F 27.1 °F 85% 30.29 in 10.0 mi Calm Calm - N/A   Clear
10:55 PM 31.5 °F 27.5 °F 85% 30.28 in 10.0 mi Calm Calm - N/A   Clear
11:15 PM 31.3 °F 27.5 °F 86% 30.28 in 10.0 mi Calm Calm - N/A   Clear
11:35 PM 30.4 °F 27.0 °F 87% 30.28 in 10.0 mi Calm Calm - N/A   Clear
11:55 PM 30.6 °F 27.1 °F 87% 30.27 in 10.0 mi Calm Calm - N/A   Clear